Time;durP1;ratioP1;P1;durP2;ratioP2;P2;SDS_P1;SDS_P2;PMS_P1;PMS_P2;Temp;Humidity;BMP_temperature;BMP_pressure;BME280_temperature;BME280_humidity;BME280_pressure;Samples;Min_cycle;Max_cycle;Signal;HPM_P1;HPM_P2
2021/12/01 00:00:35;;;;;;;1.42;0.50;;;5.40;99.90;;;;;;4979722;28;20102;-76
2021/12/01 00:03:19;;;;;;;1.55;0.52;;;5.40;99.90;;;;;;4977739;28;20209;-79
2021/12/01 00:05:45;;;;;;;1.15;0.60;;;5.30;99.90;;;;;;4967864;28;20043;-77
2021/12/01 00:08:11;;;;;;;1.17;0.50;;;5.40;99.90;;;;;;4960455;28;20043;-77
2021/12/01 00:10:38;;;;;;;1.17;0.50;;;5.30;99.90;;;;;;4960591;28;20043;-77
2021/12/01 00:13:07;;;;;;;1.60;0.60;;;5.20;99.90;;;;;;4965451;28;20023;-77
2021/12/01 00:15:33;;;;;;;1.80;0.80;;;5.20;99.90;;;;;;4978524;28;20043;-78
2021/12/01 00:18:00;;;;;;;1.00;0.60;;;5.20;99.90;;;;;;4978063;28;20034;-79
2021/12/01 00:20:26;;;;;;;1.05;0.40;;;5.10;99.90;;;;;;4978695;28;20035;-78
2021/12/01 00:22:52;;;;;;;1.23;0.60;;;5.20;99.90;;;;;;4970389;28;20025;-76
2021/12/01 00:25:22;;;;;;;1.25;0.60;;;5.10;99.90;;;;;;4957419;28;20046;-78
2021/12/01 00:27:53;;;;;;;3.65;0.80;;;5.10;99.90;;;;;;4963911;28;20109;-75
2021/12/01 00:30:20;;;;;;;1.00;0.50;;;5.10;99.90;;;;;;4978387;28;20309;-79
2021/12/01 00:32:46;;;;;;;1.88;0.55;;;5.10;99.90;;;;;;4968043;28;20050;-78
2021/12/01 00:35:13;;;;;;;1.75;0.70;;;5.00;99.90;;;;;;4967876;28;20039;-77
2021/12/01 00:37:40;;;;;;;2.35;0.60;;;5.00;99.90;;;;;;4963530;28;20069;-77
2021/12/01 00:40:08;;;;;;;1.45;0.60;;;4.90;99.90;;;;;;4966798;28;20336;-78
2021/12/01 00:42:34;;;;;;;1.45;0.55;;;4.90;99.90;;;;;;4963832;28;20027;-79
2021/12/01 00:45:07;;;;;;;1.40;0.55;;;4.90;99.90;;;;;;4963198;28;20076;-78
2021/12/01 00:47:50;;;;;;;2.03;0.55;;;5.00;99.90;;;;;;4963327;28;20066;-79
2021/12/01 00:50:34;;;;;;;1.50;0.50;;;4.90;99.90;;;;;;4967869;28;20031;-76
2021/12/01 00:53:38;;;;;;;0.98;0.47;;;5.00;99.90;;;;;;4968989;28;20034;-76
2021/12/01 00:56:41;;;;;;;1.00;0.40;;;5.00;99.90;;;;;;4965279;28;20027;-78
2021/12/01 00:59:44;;;;;;;1.20;0.40;;;5.00;99.90;;;;;;4982545;28;20214;-79
2021/12/01 01:02:47;;;;;;;1.10;0.40;;;5.00;99.90;;;;;;4981500;28;20401;-79
2021/12/01 01:05:51;;;;;;;0.77;0.30;;;4.70;99.90;;;;;;4963248;28;20187;-77
2021/12/01 01:08:54;;;;;;;0.80;0.30;;;4.60;99.90;;;;;;4962346;28;20047;-78
2021/12/01 01:18:42;;;;;;;1.30;0.30;;;4.80;99.90;;;;;;4982068;28;20038;-77
2021/12/01 01:21:48;;;;;;;1.20;0.35;;;5.00;99.90;;;;;;4980930;28;20124;-78
2021/12/01 01:24:51;;;;;;;1.58;0.57;;;5.00;99.90;;;;;;4982994;28;20038;-76
2021/12/01 01:27:17;;;;;;;1.25;0.47;;;5.00;99.90;;;;;;4990156;28;20053;-78
2021/12/01 01:29:43;;;;;;;1.25;0.52;;;5.10;99.90;;;;;;4974988;28;20035;-77
2021/12/01 01:32:09;;;;;;;1.95;0.50;;;5.10;99.90;;;;;;4961717;28;20058;-76
2021/12/01 01:34:35;;;;;;;1.27;0.52;;;5.10;99.90;;;;;;4963264;28;20053;-76
2021/12/01 01:37:00;;;;;;;1.10;0.50;;;5.10;99.90;;;;;;4958876;28;20065;-77
2021/12/01 01:39:27;;;;;;;1.95;0.45;;;5.20;99.90;;;;;;4962201;28;20034;-77
2021/12/01 01:41:54;;;;;;;0.95;0.47;;;5.20;99.90;;;;;;4968447;28;20329;-78
2021/12/01 01:44:20;;;;;;;1.75;0.60;;;5.20;99.90;;;;;;4951063;28;20038;-76
2021/12/01 01:46:46;;;;;;;1.92;0.90;;;5.20;99.90;;;;;;4973595;28;20066;-78
2021/12/01 01:49:19;;;;;;;1.35;0.63;;;5.20;99.90;;;;;;4963011;28;20043;-76
2021/12/01 01:51:47;;;;;;;1.85;0.70;;;5.20;99.90;;;;;;4951937;28;20058;-77
2021/12/01 01:54:13;;;;;;;2.17;0.90;;;5.20;99.90;;;;;;4976848;28;20050;-76
2021/12/01 01:56:42;;;;;;;2.08;0.63;;;5.30;99.90;;;;;;4963204;28;20349;-78
2021/12/01 01:59:08;;;;;;;1.75;0.77;;;5.20;99.90;;;;;;4971509;28;20027;-75
2021/12/01 02:01:58;;;;;;;2.47;0.68;;;5.20;99.90;;;;;;4973891;28;20039;-75
2021/12/01 02:04:26;;;;;;;2.25;0.90;;;5.30;99.90;;;;;;4962848;28;20102;-77
2021/12/01 02:06:52;;;;;;;1.52;0.70;;;5.30;99.90;;;;;;4962143;29;20098;-77
2021/12/01 02:09:23;;;;;;;1.55;0.70;;;5.20;99.90;;;;;;4961259;29;20246;-77
2021/12/01 02:11:52;;;;;;;1.92;0.90;;;5.20;99.90;;;;;;4961087;29;20042;-77
2021/12/01 02:14:18;;;;;;;2.95;0.80;;;5.20;99.90;;;;;;4977677;28;20034;-79
2021/12/01 02:16:44;;;;;;;1.67;1.00;;;5.20;99.90;;;;;;4981548;28;20045;-76
2021/12/01 02:19:10;;;;;;;1.65;0.75;;;5.30;99.90;;;;;;4979818;28;20269;-78
2021/12/01 02:21:36;;;;;;;2.15;0.70;;;5.30;99.90;;;;;;4981257;28;20021;-77
2021/12/01 02:24:06;;;;;;;1.60;0.70;;;5.20;99.90;;;;;;4981140;28;20313;-76
2021/12/01 02:26:35;;;;;;;1.65;0.70;;;5.30;99.90;;;;;;4981028;28;20069;-79
2021/12/01 02:29:04;;;;;;;1.10;0.65;;;5.20;99.90;;;;;;4981410;28;20030;-76
2021/12/01 02:31:33;;;;;;;1.77;0.70;;;5.30;99.90;;;;;;4981734;28;20033;-78
2021/12/01 02:34:00;;;;;;;1.65;0.75;;;5.30;99.90;;;;;;4965615;28;20023;-77
2021/12/01 02:36:27;;;;;;;2.10;0.70;;;5.20;99.90;;;;;;4961892;28;20024;-78
2021/12/01 02:38:53;;;;;;;1.88;0.80;;;5.30;99.90;;;;;;4961488;28;20023;-78
2021/12/01 02:41:31;;;;;;;2.72;0.70;;;5.30;99.90;;;;;;4960877;29;20094;-77
2021/12/01 02:44:00;;;;;;;1.85;0.75;;;5.30;99.90;;;;;;4961388;28;20036;-77
2021/12/01 02:46:27;;;;;;;2.05;0.90;;;5.40;99.90;;;;;;4960435;29;20067;-76
2021/12/01 02:48:55;;;;;;;1.83;0.50;;;5.30;99.90;;;;;;4960150;29;20039;-77
2021/12/01 02:51:27;;;;;;;1.73;0.57;;;5.40;99.90;;;;;;4973114;28;20073;-79
2021/12/01 02:53:53;;;;;;;3.33;0.80;;;5.30;99.90;;;;;;4980334;28;20381;-78
2021/12/01 02:56:21;;;;;;;1.40;0.68;;;5.40;99.90;;;;;;4981018;28;20034;-78
2021/12/01 02:58:48;;;;;;;1.33;0.70;;;5.40;99.90;;;;;;4980136;28;20112;-78
2021/12/01 03:01:18;;;;;;;1.05;0.40;;;5.40;99.90;;;;;;4980525;28;20089;-78
2021/12/01 03:03:45;;;;;;;1.02;0.50;;;5.40;99.90;;;;;;4967959;28;20094;-78
2021/12/01 03:06:12;;;;;;;1.67;0.45;;;5.50;99.90;;;;;;4961014;29;20027;-77
2021/12/01 03:08:42;;;;;;;1.50;0.40;;;5.50;99.90;;;;;;4961595;28;20058;-80
2021/12/01 03:11:09;;;;;;;1.55;0.50;;;5.50;99.90;;;;;;4961035;28;20089;-78
2021/12/01 03:13:35;;;;;;;2.17;0.60;;;5.60;99.90;;;;;;4969255;28;20073;-77
2021/12/01 03:16:01;;;;;;;1.27;0.50;;;5.60;99.90;;;;;;4979806;28;20306;-78
2021/12/01 03:18:27;;;;;;;1.02;0.47;;;5.60;99.90;;;;;;4980844;28;20035;-78
2021/12/01 03:20:54;;;;;;;1.55;0.60;;;5.60;99.90;;;;;;4980305;28;20023;-78
2021/12/01 03:23:21;;;;;;;2.45;0.60;;;5.60;99.90;;;;;;4979542;28;20213;-78
2021/12/01 03:25:47;;;;;;;1.35;0.50;;;5.60;99.90;;;;;;4980513;28;20233;-78
2021/12/01 03:28:13;;;;;;;1.60;0.70;;;5.60;99.90;;;;;;4978436;28;20055;-78
2021/12/01 03:30:39;;;;;;;0.95;0.40;;;5.70;99.90;;;;;;4978916;28;20081;-77
2021/12/01 03:33:11;;;;;;;2.75;0.60;;;5.60;99.90;;;;;;4973939;28;20142;-77
2021/12/01 03:35:39;;;;;;;1.88;0.50;;;5.60;99.90;;;;;;4960918;29;20027;-80
2021/12/01 03:38:05;;;;;;;1.38;0.65;;;5.70;99.90;;;;;;4943396;28;20051;-77
2021/12/01 03:40:31;;;;;;;1.00;0.50;;;5.60;99.90;;;;;;4959817;28;20034;-75
2021/12/01 03:42:57;;;;;;;1.30;0.57;;;5.70;99.90;;;;;;4943508;29;20221;-76
2021/12/01 03:45:23;;;;;;;1.48;0.50;;;5.70;99.90;;;;;;4960610;28;20024;-77
2021/12/01 03:47:48;;;;;;;1.25;0.50;;;5.70;99.90;;;;;;4961160;29;20032;-76
2021/12/01 03:50:16;;;;;;;2.05;0.60;;;5.60;99.90;;;;;;4963182;28;20041;-77
2021/12/01 03:52:42;;;;;;;2.40;0.70;;;5.60;99.90;;;;;;4978816;28;20054;-79
2021/12/01 03:55:08;;;;;;;1.35;0.50;;;5.60;99.90;;;;;;4979430;28;20276;-79
2021/12/01 03:57:35;;;;;;;1.88;0.60;;;5.70;99.90;;;;;;4980001;28;20034;-78
2021/12/01 04:00:02;;;;;;;1.58;0.68;;;5.70;99.90;;;;;;4978439;28;20217;-77
2021/12/01 04:02:38;;;;;;;1.50;0.60;;;5.70;99.90;;;;;;4977107;28;20031;-76
2021/12/01 04:05:05;;;;;;;1.30;0.50;;;5.60;99.90;;;;;;4960420;28;20035;-77
2021/12/01 04:07:31;;;;;;;1.75;0.68;;;5.60;99.90;;;;;;4960725;28;20363;-77
2021/12/01 04:09:57;;;;;;;1.95;0.70;;;5.70;99.90;;;;;;4960726;29;20027;-78
2021/12/01 04:12:23;;;;;;;1.10;0.40;;;5.70;99.90;;;;;;4963119;29;20314;-78
2021/12/01 04:14:49;;;;;;;1.95;0.77;;;5.70;99.90;;;;;;4983298;28;20046;-78
2021/12/01 04:17:15;;;;;;;1.83;0.60;;;5.70;99.90;;;;;;4981585;28;20221;-78
2021/12/01 04:19:40;;;;;;;2.60;0.63;;;5.70;99.90;;;;;;4983108;28;20027;-77
2021/12/01 04:22:06;;;;;;;1.40;0.70;;;5.70;99.90;;;;;;4983085;28;20026;-78
2021/12/01 04:24:33;;;;;;;2.03;0.68;;;5.70;99.90;;;;;;4982801;28;20053;-77
2021/12/01 04:26:58;;;;;;;2.00;0.80;;;5.70;99.90;;;;;;4964910;28;20326;-78
2021/12/01 04:29:26;;;;;;;1.23;0.60;;;5.70;99.90;;;;;;4981523;28;20363;-77
2021/12/01 04:31:51;;;;;;;1.73;0.73;;;5.70;99.90;;;;;;4981761;28;20265;-77
2021/12/01 04:34:20;;;;;;;2.78;0.95;;;5.70;99.90;;;;;;4968543;28;20032;-78
2021/12/01 04:36:47;;;;;;;1.77;0.88;;;5.70;99.90;;;;;;4962768;29;20015;-79
2021/12/01 04:39:16;;;;;;;1.70;0.70;;;5.70;99.90;;;;;;4967121;28;20057;-76
2021/12/01 04:41:54;;;;;;;;;;;5.70;99.90;;;;;;4974577;28;20121;-76
2021/12/01 04:44:22;;;;;;;1.27;0.68;;;5.80;99.90;;;;;;4972182;28;19906;-76
2021/12/01 04:46:52;;;;;;;3.38;0.80;;;5.80;99.90;;;;;;4963643;28;20035;-78
2021/12/01 04:49:20;;;;;;;1.40;0.70;;;5.80;99.90;;;;;;4961924;28;20023;-77
2021/12/01 04:51:50;;;;;;;1.20;0.40;;;5.90;99.90;;;;;;4978182;28;20037;-77
2021/12/01 04:54:16;;;;;;;1.80;0.77;;;5.90;99.90;;;;;;4982237;28;20031;-78
2021/12/01 04:56:44;;;;;;;2.00;0.65;;;6.00;99.90;;;;;;4982679;28;20027;-78
2021/12/01 04:59:10;;;;;;;1.48;0.50;;;5.90;99.90;;;;;;4982231;28;20042;-78
2021/12/01 05:01:37;;;;;;;2.13;0.65;;;6.00;99.90;;;;;;4981460;28;20193;-78
2021/12/01 05:04:03;;;;;;;1.70;0.50;;;6.00;99.90;;;;;;4970560;28;20023;-78
2021/12/01 05:06:30;;;;;;;1.58;0.50;;;6.00;99.90;;;;;;4962201;29;20028;-78
2021/12/01 05:08:56;;;;;;;1.67;0.50;;;6.00;99.90;;;;;;4962046;29;20094;-78
2021/12/01 05:11:22;;;;;;;1.08;0.40;;;6.00;99.90;;;;;;4962599;29;20039;-78
2021/12/01 05:13:48;;;;;;;1.45;0.52;;;6.10;99.90;;;;;;4966166;29;20031;-75
2021/12/01 05:16:14;;;;;;;1.05;0.50;;;6.10;99.90;;;;;;4964049;29;20027;-76
2021/12/01 05:18:40;;;;;;;1.88;0.93;;;6.10;99.90;;;;;;4965040;28;20031;-77
2021/12/01 05:21:05;;;;;;;1.52;0.40;;;6.10;99.90;;;;;;4961092;29;20087;-79
2021/12/01 05:23:32;;;;;;;1.77;0.50;;;6.10;99.90;;;;;;4961551;29;20234;-77
2021/12/01 05:25:57;;;;;;;1.65;0.50;;;6.10;99.90;;;;;;4961725;29;20039;-79
2021/12/01 05:28:23;;;;;;;1.27;0.60;;;6.10;99.90;;;;;;4962411;29;20217;-78
2021/12/01 05:30:49;;;;;;;1.10;0.32;;;6.10;99.90;;;;;;4962727;28;20058;-77
2021/12/01 05:33:15;;;;;;;1.27;0.40;;;6.10;99.90;;;;;;4960542;28;20024;-78
2021/12/01 05:35:46;;;;;;;2.45;0.50;;;6.20;99.90;;;;;;4961676;28;20032;-77
2021/12/01 05:38:12;;;;;;;2.60;0.63;;;6.20;99.90;;;;;;4961110;29;20059;-79
2021/12/01 05:40:38;;;;;;;1.38;0.40;;;6.30;99.90;;;;;;4962893;28;20064;-81
2021/12/01 05:43:04;;;;;;;1.73;0.40;;;6.30;99.90;;;;;;4945262;29;20027;-78
2021/12/01 05:45:31;;;;;;;1.95;0.40;;;6.50;99.90;;;;;;4961658;29;20046;-78
2021/12/01 05:47:57;;;;;;;1.80;0.38;;;6.50;99.90;;;;;;4965883;28;20042;-80
2021/12/01 05:50:23;;;;;;;1.35;0.40;;;6.70;99.90;;;;;;4965630;28;20293;-79
2021/12/01 05:52:48;;;;;;;1.10;0.20;;;6.80;99.90;;;;;;4980516;28;20045;-79
2021/12/01 05:55:14;;;;;;;0.93;0.30;;;6.90;99.90;;;;;;4963909;28;20033;-79
2021/12/01 05:57:40;;;;;;;0.93;0.30;;;6.90;99.90;;;;;;4966399;28;20023;-78
2021/12/01 06:00:10;;;;;;;0.85;0.30;;;7.00;99.90;;;;;;4980083;28;20023;-81
2021/12/01 06:02:36;;;;;;;0.60;0.30;;;7.00;99.90;;;;;;4979908;28;20034;-78
2021/12/01 06:05:02;;;;;;;1.10;0.30;;;6.90;99.90;;;;;;4962760;28;20034;-77
2021/12/01 06:07:27;;;;;;;1.02;0.40;;;6.90;99.90;;;;;;4979735;28;20041;-78
2021/12/01 06:09:53;;;;;;;2.15;0.30;;;7.00;99.90;;;;;;4980590;28;20031;-79
2021/12/01 06:12:19;;;;;;;0.98;0.30;;;6.90;99.90;;;;;;4963983;28;20027;-79
2021/12/01 06:14:45;;;;;;;1.25;0.40;;;6.90;99.90;;;;;;4981184;28;20027;-79
2021/12/01 06:17:14;;;;;;;1.65;0.40;;;6.90;99.90;;;;;;4981636;28;20062;-76
2021/12/01 06:19:40;;;;;;;3.28;0.35;;;6.80;99.90;;;;;;4981004;28;20022;-78
2021/12/01 06:22:07;;;;;;;1.17;0.43;;;6.90;99.90;;;;;;4980286;28;20049;-79
2021/12/01 06:24:36;;;;;;;1.13;0.73;;;6.90;99.90;;;;;;4980089;28;20080;-79
2021/12/01 06:27:03;;;;;;;0.68;0.30;;;6.90;99.90;;;;;;4980977;28;20050;-76
2021/12/01 06:29:28;;;;;;;1.38;0.35;;;7.00;99.90;;;;;;4980759;28;20031;-77
2021/12/01 06:31:54;;;;;;;1.10;0.40;;;7.00;99.90;;;;;;4962561;28;20102;-77
2021/12/01 06:34:20;;;;;;;0.60;0.20;;;7.00;99.90;;;;;;4980035;28;20026;-79
2021/12/01 06:36:46;;;;;;;2.60;0.65;;;7.00;99.90;;;;;;4981402;28;20035;-82
2021/12/01 06:39:11;;;;;;;1.92;0.38;;;7.00;99.90;;;;;;4979793;28;20030;-81
2021/12/01 06:41:37;;;;;;;1.15;0.35;;;7.00;99.90;;;;;;4964331;28;20018;-79
2021/12/01 06:44:03;;;;;;;1.30;0.30;;;7.00;99.90;;;;;;4964043;28;20303;-80
2021/12/01 06:46:29;;;;;;;1.13;0.30;;;7.10;99.90;;;;;;4962851;28;20229;-78
2021/12/01 06:48:56;;;;;;;0.55;0.20;;;7.10;99.90;;;;;;4998597;28;20050;-79
2021/12/01 06:51:23;;;;;;;0.77;0.20;;;7.10;99.90;;;;;;4998160;28;20324;-77
2021/12/01 06:53:49;;;;;;;2.78;0.30;;;7.10;99.90;;;;;;4982216;28;20039;-78
2021/12/01 06:56:16;;;;;;;1.80;0.80;;;7.20;99.90;;;;;;5059850;28;20103;-77
2021/12/01 06:58:43;;;;;;;1.38;0.30;;;7.20;99.90;;;;;;5043936;28;20043;-80
2021/12/01 07:01:09;;;;;;;0.65;0.20;;;7.20;99.90;;;;;;5042634;28;20227;-78
2021/12/01 07:03:36;;;;;;;1.58;0.40;;;7.20;99.90;;;;;;5059704;28;20036;-79
2021/12/01 07:06:02;;;;;;;1.67;0.40;;;7.20;99.90;;;;;;5060761;28;20041;-78
2021/12/01 07:08:28;;;;;;;1.88;0.35;;;7.20;99.90;;;;;;5043237;28;20060;-79
2021/12/01 07:10:54;;;;;;;1.52;0.50;;;7.10;99.90;;;;;;5060432;28;20044;-77
2021/12/01 07:13:20;;;;;;;1.95;0.32;;;7.30;99.90;;;;;;5059672;28;20401;-78
2021/12/01 07:15:46;;;;;;;0.65;0.25;;;7.40;99.90;;;;;;5043325;28;20172;-78
2021/12/01 07:18:13;;;;;;;2.22;0.40;;;7.40;99.90;;;;;;5043042;28;20059;-80
2021/12/01 07:20:39;;;;;;;0.90;0.30;;;7.60;99.90;;;;;;5008800;28;20406;-78
2021/12/01 07:23:05;;;;;;;1.67;0.50;;;7.50;99.90;;;;;;5033326;28;20067;-79
2021/12/01 07:25:32;;;;;;;1.67;0.50;;;7.60;99.90;;;;;;5005470;28;20032;-78
2021/12/01 07:27:58;;;;;;;2.75;0.77;;;7.60;99.90;;;;;;4986336;28;20038;-78
2021/12/01 07:30:24;;;;;;;1.02;0.30;;;7.70;99.90;;;;;;4961875;28;20031;-78
2021/12/01 07:32:51;;;;;;;1.85;0.32;;;7.70;99.90;;;;;;4978850;28;20027;-77
2021/12/01 07:35:17;;;;;;;0.70;0.20;;;7.80;99.90;;;;;;4978731;28;20110;-78
2021/12/01 07:37:44;;;;;;;0.77;0.35;;;7.80;99.90;;;;;;4978885;28;20026;-80
2021/12/01 07:40:11;;;;;;;1.52;0.55;;;7.90;99.90;;;;;;4978173;28;20037;-79
2021/12/01 07:42:37;;;;;;;1.30;0.32;;;7.90;99.90;;;;;;4982307;28;20030;-76
2021/12/01 07:45:04;;;;;;;1.20;0.30;;;7.80;99.90;;;;;;4985001;28;20335;-79
2021/12/01 07:47:31;;;;;;;0.90;0.30;;;7.90;99.90;;;;;;4966844;28;20116;-82
2021/12/01 07:49:58;;;;;;;1.08;0.25;;;7.90;99.90;;;;;;4984276;28;20076;-80
2021/12/01 07:52:24;;;;;;;1.48;0.30;;;7.90;99.90;;;;;;4967603;28;20026;-78
2021/12/01 07:54:49;;;;;;;1.45;0.40;;;8.00;99.90;;;;;;4968501;28;20090;-78
2021/12/01 07:57:16;;;;;;;1.17;0.22;;;8.00;99.90;;;;;;4991618;28;20019;-78
2021/12/01 07:59:42;;;;;;;0.73;0.30;;;8.00;99.90;;;;;;4976115;29;20037;-77
2021/12/01 08:02:08;;;;;;;0.88;0.25;;;8.10;99.90;;;;;;4975118;28;20067;-78
2021/12/01 08:04:35;;;;;;;0.70;0.15;;;8.20;99.90;;;;;;4989647;28;20196;-76
2021/12/01 08:07:01;;;;;;;0.65;0.28;;;8.20;99.90;;;;;;4985316;28;20245;-77
2021/12/01 08:09:27;;;;;;;0.95;0.20;;;8.20;99.90;;;;;;4982061;28;20106;-79
2021/12/01 08:11:54;;;;;;;2.58;0.40;;;8.30;99.90;;;;;;4983129;28;20015;-83
2021/12/01 08:14:20;;;;;;;0.88;0.20;;;8.20;99.90;;;;;;4983067;28;20116;-82
2021/12/01 08:16:47;;;;;;;0.80;0.20;;;8.30;99.90;;;;;;4982050;28;20043;-80
2021/12/01 08:19:13;;;;;;;0.82;0.20;;;8.30;99.90;;;;;;4981568;28;20076;-79
2021/12/01 08:21:39;;;;;;;0.95;0.30;;;8.30;99.90;;;;;;4983311;28;20031;-80
2021/12/01 08:24:05;;;;;;;1.05;0.40;;;8.20;99.90;;;;;;4982013;28;20019;-83
2021/12/01 08:26:31;;;;;;;1.10;0.20;;;8.20;99.90;;;;;;4982229;28;20037;-83
2021/12/01 08:28:58;;;;;;;0.88;0.30;;;8.30;99.90;;;;;;4983301;28;20035;-77
2021/12/01 08:31:24;;;;;;;1.02;0.20;;;8.30;99.90;;;;;;4983618;28;20039;-78
2021/12/01 08:33:50;;;;;;;0.65;0.20;;;8.40;99.90;;;;;;4982564;28;20241;-82
2021/12/01 08:36:17;;;;;;;1.30;0.45;;;8.50;99.90;;;;;;4981890;28;20018;-79
2021/12/01 08:38:44;;;;;;;0.88;0.20;;;8.60;99.90;;;;;;4983664;28;20027;-80
2021/12/01 08:41:10;;;;;;;1.25;0.28;;;8.70;99.90;;;;;;4982203;28;20042;-77
2021/12/01 08:43:36;;;;;;;0.85;0.20;;;8.80;99.90;;;;;;4984596;28;20053;-78
2021/12/01 08:46:04;;;;;;;0.75;0.20;;;8.80;99.90;;;;;;4984400;28;20355;-79
2021/12/01 08:48:30;;;;;;;1.48;0.10;;;8.80;99.90;;;;;;4982934;28;20026;-76
2021/12/01 08:50:56;;;;;;;0.70;0.30;;;8.80;99.90;;;;;;4982896;28;20046;-81
2021/12/01 08:53:23;;;;;;;0.40;0.10;;;8.90;99.90;;;;;;4982454;28;20332;-79
2021/12/01 08:55:50;;;;;;;2.45;0.20;;;8.90;99.90;;;;;;4950274;28;20073;-82
2021/12/01 08:58:17;;;;;;;1.45;0.17;;;9.00;99.90;;;;;;4982097;28;20305;-79
2021/12/01 09:00:45;;;;;;;0.68;0.20;;;9.10;99.90;;;;;;4981620;28;20041;-79
2021/12/01 09:03:16;;;;;;;0.80;0.22;;;9.10;99.90;;;;;;4965308;28;20033;-78
2021/12/01 09:05:44;;;;;;;0.30;0.10;;;9.10;99.90;;;;;;4962361;28;20062;-79
2021/12/01 09:08:11;;;;;;;0.77;0.20;;;9.30;99.90;;;;;;4961659;29;20043;-79
2021/12/01 09:10:37;;;;;;;0.30;0.17;;;9.40;99.90;;;;;;4961915;29;20046;-81
2021/12/01 09:13:04;;;;;;;1.35;0.17;;;9.50;99.90;;;;;;4961936;29;20032;-80
2021/12/01 09:15:32;;;;;;;0.40;0.10;;;9.70;99.90;;;;;;4961041;28;20039;-80
2021/12/01 09:17:58;;;;;;;1.03;0.17;;;9.80;99.90;;;;;;4961678;28;20015;-78
2021/12/01 09:20:26;;;;;;;0.73;0.15;;;10.00;99.90;;;;;;4961579;29;20106;-81
2021/12/01 09:22:54;;;;;;;0.90;0.40;;;10.10;99.90;;;;;;4961886;28;20022;-78
2021/12/01 09:25:20;;;;;;;0.95;0.15;;;10.30;99.90;;;;;;4961458;29;20031;-78
2021/12/01 09:27:48;;;;;;;1.10;0.20;;;10.20;99.90;;;;;;4961340;29;20077;-80
2021/12/01 09:30:16;;;;;;;1.25;0.28;;;10.20;99.90;;;;;;4974681;28;20037;-80
2021/12/01 09:32:42;;;;;;;;;;;10.30;99.90;;;;;;4961997;29;20027;-76
2021/12/01 09:35:10;;;;;;;0.10;0.05;;;10.20;99.90;;;;;;5075607;28;19916;-79
2021/12/01 09:37:37;;;;;;;0.93;0.10;;;10.00;99.90;;;;;;5084407;28;20068;-77
2021/12/01 09:40:13;;;;;;;1.15;0.20;;;10.00;99.90;;;;;;5049051;28;20321;-79
2021/12/01 09:42:43;;;;;;;0.95;0.15;;;9.90;99.90;;;;;;5065401;28;20032;-79
2021/12/01 09:45:10;;;;;;;0.20;0.10;;;10.00;99.90;;;;;;5063970;28;20094;-79
2021/12/01 09:47:37;;;;;;;0.73;0.20;;;10.00;99.90;;;;;;5048262;28;20060;-78
2021/12/01 09:50:03;;;;;;;0.60;0.10;;;10.00;99.90;;;;;;5063831;28;20036;-79
2021/12/01 09:52:29;;;;;;;1.50;0.20;;;10.10;99.90;;;;;;5027676;28;20033;-77
2021/12/01 09:54:55;;;;;;;1.52;0.17;;;10.10;99.90;;;;;;5061428;28;20068;-77
2021/12/01 09:57:21;;;;;;;0.50;0.10;;;10.10;99.90;;;;;;5027623;28;20154;-79
2021/12/01 09:59:47;;;;;;;0.70;0.20;;;10.00;99.90;;;;;;5028250;28;20079;-78
2021/12/01 10:02:13;;;;;;;0.32;0.10;;;10.10;99.90;;;;;;5042513;28;20079;-79
2021/12/01 10:04:39;;;;;;;0.60;0.20;;;10.10;99.90;;;;;;5046845;28;20035;-79
2021/12/01 10:07:19;;;;;;;0.88;0.30;;;10.20;99.90;;;;;;4969489;28;20043;-80
2021/12/01 10:09:50;;;;;;;1.65;0.40;;;10.30;99.90;;;;;;4960960;28;20031;-80
2021/12/01 10:12:16;;;;;;;0.63;0.13;;;10.40;99.90;;;;;;4961663;28;20054;-78
2021/12/01 10:14:51;;;;;;;0.65;0.20;;;10.50;99.90;;;;;;4962355;28;20023;-79
2021/12/01 10:17:32;;;;;;;2.05;0.20;;;10.60;99.90;;;;;;4959876;28;20066;-79
2021/12/01 10:20:13;;;;;;;0.90;0.30;;;10.80;99.90;;;;;;4960755;28;20055;-78
2021/12/01 10:22:39;;;;;;;0.47;0.10;;;10.70;99.90;;;;;;4960995;28;20253;-80
2021/12/01 10:25:28;;;;;;;0.88;0.20;;;10.60;99.90;;;;;;4961256;29;20089;-80
2021/12/01 10:27:54;;;;;;;0.93;0.20;;;10.60;99.90;;;;;;4944481;29;20054;-80
2021/12/01 10:30:44;;;;;;;0.95;0.25;;;10.60;99.90;;;;;;4978606;28;20023;-81
2021/12/01 10:33:14;;;;;;;0.90;0.30;;;10.80;99.90;;;;;;4980017;28;20305;-81
2021/12/01 10:35:40;;;;;;;3.35;0.28;;;11.00;99.90;;;;;;4961930;28;20027;-80
2021/12/01 10:38:07;;;;;;;2.08;0.10;;;11.00;99.90;;;;;;4979910;28;20058;-79
2021/12/01 10:40:37;;;;;;;0.95;0.20;;;10.90;99.90;;;;;;4979369;28;20027;-78
2021/12/01 10:43:06;;;;;;;1.77;0.50;;;11.00;99.90;;;;;;4979421;28;20054;-81
2021/12/01 10:45:46;;;;;;;0.70;0.10;;;11.00;99.90;;;;;;4978782;28;20343;-79
2021/12/01 10:48:22;;;;;;;0.77;0.25;;;11.10;99.90;;;;;;4964037;28;20058;-79
2021/12/01 10:50:48;;;;;;;2.00;0.30;;;11.10;99.90;;;;;;4980706;28;20031;-78
2021/12/01 10:53:18;;;;;;;0.63;0.20;;;11.00;99.90;;;;;;4979692;28;20336;-80
2021/12/01 10:55:52;;;;;;;0.85;0.20;;;11.00;99.90;;;;;;4963597;28;20038;-78
2021/12/01 10:58:18;;;;;;;0.40;0.10;;;11.10;99.90;;;;;;4979246;28;20064;-78
2021/12/01 11:00:49;;;;;;;1.98;0.30;;;11.10;99.90;;;;;;4979042;28;20038;-80
2021/12/01 11:03:21;;;;;;;0.40;0.20;;;11.10;99.90;;;;;;4979102;28;20060;-79
2021/12/01 11:05:47;;;;;;;0.50;0.15;;;11.00;99.90;;;;;;4978855;28;20031;-80
2021/12/01 11:08:22;;;;;;;0.17;0.10;;;11.20;99.90;;;;;;4979217;28;20101;-79
2021/12/01 11:10:56;;;;;;;0.25;0.15;;;11.20;99.90;;;;;;4979587;28;20272;-77
2021/12/01 11:13:24;;;;;;;1.38;0.10;;;11.20;99.90;;;;;;4979178;28;20077;-79
2021/12/01 11:16:17;;;;;;;0.20;0.10;;;11.10;99.90;;;;;;4963123;28;20042;-79
2021/12/01 11:18:49;;;;;;;0.50;0.17;;;11.20;99.90;;;;;;4924921;29;20169;-80
2021/12/01 11:21:19;;;;;;;0.88;0.10;;;11.40;99.90;;;;;;4925367;29;20326;-78
2021/12/01 11:23:45;;;;;;;;;;;11.40;99.90;;;;;;4926459;29;20043;-79
2021/12/01 11:26:16;;;;;;;0.40;0.10;;;11.20;99.90;;;;;;4911563;29;19961;-78
2021/12/01 11:28:45;;;;;;;0.40;0.10;;;11.20;99.90;;;;;;4937499;29;20098;-77
2021/12/01 11:31:14;;;;;;;0.47;0.22;;;11.30;99.90;;;;;;4936835;29;20031;-80
2021/12/01 11:33:44;;;;;;;0.30;0.05;;;11.30;99.90;;;;;;4931826;29;20102;-77
2021/12/01 11:36:12;;;;;;;0.32;0.10;;;11.40;99.90;;;;;;4909996;29;20027;-79
2021/12/01 11:38:39;;;;;;;0.43;0.10;;;11.20;99.90;;;;;;4909677;29;20349;-79
2021/12/01 11:41:07;;;;;;;0.40;0.10;;;11.40;99.90;;;;;;4924805;29;20101;-79
2021/12/01 11:43:35;;;;;;;1.00;0.40;;;11.80;99.90;;;;;;4907796;29;20082;-78
2021/12/01 11:46:02;;;;;;;0.40;0.20;;;12.30;99.90;;;;;;4923721;29;20032;-81
2021/12/01 11:48:34;;;;;;;0.73;0.15;;;12.90;99.90;;;;;;4923473;28;20036;-80
2021/12/01 11:51:29;;;;;;;0.45;0.10;;;13.70;99.90;;;;;;4959348;28;20260;-78
2021/12/01 11:54:11;;;;;;;1.10;0.20;;;13.90;99.90;;;;;;4959402;29;20335;-78
2021/12/01 11:56:38;;;;;;;0.63;0.20;;;14.10;99.90;;;;;;4960865;28;20035;-78
2021/12/01 11:59:16;;;;;;;0.75;0.20;;;14.60;99.90;;;;;;4959482;28;20087;-78
2021/12/01 12:01:53;;;;;;;0.50;0.10;;;15.90;99.90;;;;;;4959184;28;20051;-79
2021/12/01 12:04:21;;;;;;;0.65;0.20;;;15.50;99.90;;;;;;4968187;28;20035;-80
2021/12/01 12:06:53;;;;;;;0.43;0.13;;;15.20;99.90;;;;;;4959368;29;20031;-80
2021/12/01 12:09:21;;;;;;;0.90;0.20;;;14.60;99.90;;;;;;4959927;29;20076;-79
2021/12/01 12:11:59;;;;;;;;;;;14.80;99.90;;;;;;4959762;29;20031;-80
2021/12/01 12:14:36;;;;;;;1.55;0.55;;;15.20;99.90;;;;;;4943196;29;19906;-79
2021/12/01 12:17:13;;;;;;;1.23;0.40;;;15.80;99.90;;;;;;4943370;29;20043;-81
2021/12/01 12:19:56;;;;;;;2.80;0.40;;;15.70;99.90;;;;;;4943849;29;20115;-80
2021/12/01 12:22:48;;;;;;;0.82;0.30;;;15.40;99.90;;;;;;4961809;28;20191;-79
2021/12/01 12:25:42;;;;;;;0.30;0.10;;;15.50;99.90;;;;;;4952991;28;20105;-79
2021/12/01 12:28:28;;;;;;;0.82;0.20;;;16.70;99.90;;;;;;4977749;28;20373;-79
2021/12/01 12:31:20;;;;;;;1.60;0.32;;;17.00;99.90;;;;;;4979011;28;20272;-79
2021/12/01 12:33:54;;;;;;;1.25;0.30;;;15.90;99.90;;;;;;4982785;28;20027;-79
2021/12/01 12:36:58;;;;;;;1.65;0.40;;;15.00;99.90;;;;;;4981614;28;20209;-81
2021/12/01 12:39:43;;;;;;;0.85;0.25;;;14.60;99.90;;;;;;4975723;28;20386;-80
2021/12/01 12:42:12;;;;;;;1.98;0.60;;;13.60;99.90;;;;;;4982661;28;20050;-77
2021/12/01 12:44:49;;;;;;;1.42;0.50;;;13.50;99.90;;;;;;4981773;28;20053;-78
2021/12/01 12:47:25;;;;;;;1.00;0.30;;;12.90;99.90;;;;;;4980651;28;20360;-79
2021/12/01 12:50:13;;;;;;;1.65;0.40;;;12.70;99.90;;;;;;4981434;28;20034;-79
2021/12/01 12:52:50;;;;;;;1.70;0.40;;;12.40;99.90;;;;;;4946168;28;20077;-80
2021/12/01 12:55:19;;;;;;;1.43;0.40;;;12.20;99.90;;;;;;4961601;28;20345;-79
2021/12/01 12:57:56;;;;;;;1.85;0.47;;;11.90;99.90;;;;;;4970222;28;20038;-78
2021/12/01 13:00:28;;;;;;;1.23;0.40;;;12.10;99.90;;;;;;4961173;28;20110;-79
2021/12/01 13:02:56;;;;;;;0.68;0.20;;;11.90;99.90;;;;;;4963696;28;20144;-79
2021/12/01 13:05:55;;;;;;;2.38;0.50;;;11.90;99.90;;;;;;4968511;28;20035;-81
2021/12/01 13:08:41;;;;;;;1.55;0.40;;;11.80;99.90;;;;;;4966582;28;20252;-82
2021/12/01 13:11:11;;;;;;;2.10;0.88;;;11.50;99.90;;;;;;4969936;28;20037;-80
2021/12/01 13:13:41;;;;;;;1.83;0.43;;;11.30;99.90;;;;;;4964968;28;20035;-83
2021/12/01 13:16:10;;;;;;;1.00;0.35;;;11.20;99.90;;;;;;4967223;28;20098;-78